Terminal Aerodrome Forecast
Issued by NWS Quad Cities IA IL

Home | Current Version | Previous Version | Graphics & Text | Print | Product List | Glossary On
Versions: 1 2 3 4 5 6 7 8 9 10 11 12 13 14 15 16 17
000
FTUS43 KDVN 281131
TAFMLI
TAF
KMLI 281131Z 2812/2912 10005KT P6SM SCT200
      TEMPO 2814/2817 4SM TSRA BR BKN040CB OVC070
     FM281700 16010KT P6SM VCTS SCT050CB BKN200
      TEMPO 2817/2820 VRB25G35KT 2SM TSRA BKN025CB OVC040
     FM282000 14006KT P6SM SCT050 BKN100
     FM290200 19008KT 2SM TSRA BKN030CB OVC070
     FM290800 29008KT P6SM SCT250=

USA.gov is the U.S. government's official web portal to all federal, state and local government web resources and services.